sensor_id;sensor_type;location;lat;lon;timestamp;pressure;altitude;pressure_sealevel;temperature;humidity
30554;BME280;17335;50.720;7.452;2023-05-21T00:00:48;99361.09;;;11.30;100.00
30554;BME280;17335;50.720;7.452;2023-05-21T00:03:16;99354.91;;;11.19;100.00
30554;BME280;17335;50.720;7.452;2023-05-21T00:05:43;99345.28;;;11.17;100.00
30554;BME280;17335;50.720;7.452;2023-05-21T00:08:12;99342.06;;;11.13;100.00
30554;BME280;17335;50.720;7.452;2023-05-21T00:10:39;99340.34;;;11.12;100.00
30554;BME280;17335;50.720;7.452;2023-05-21T00:13:06;99345.59;;;11.14;100.00
30554;BME280;17335;50.720;7.452;2023-05-21T00:15:34;99341.06;;;11.14;100.00
30554;BME280;17335;50.720;7.452;2023-05-21T00:18:02;99333.72;;;11.16;100.00
30554;BME280;17335;50.720;7.452;2023-05-21T00:20:29;99334.09;;;11.21;100.00
30554;BME280;17335;50.720;7.452;2023-05-21T00:22:58;99326.22;;;11.10;100.00
30554;BME280;17335;50.720;7.452;2023-05-21T00:25:25;99322.16;;;11.06;100.00
30554;BME280;17335;50.720;7.452;2023-05-21T00:27:52;99322.16;;;11.06;100.00
30554;BME280;17335;50.720;7.452;2023-05-21T00:30:19;99323.00;;;11.06;100.00
30554;BME280;17335;50.720;7.452;2023-05-21T00:32:46;99323.53;;;11.10;100.00
30554;BME280;17335;50.720;7.452;2023-05-21T00:35:12;99315.50;;;11.10;100.00
30554;BME280;17335;50.720;7.452;2023-05-21T00:37:39;99309.97;;;11.12;100.00
30554;BME280;17335;50.720;7.452;2023-05-21T00:40:07;99312.66;;;11.12;100.00
30554;BME280;17335;50.720;7.452;2023-05-21T00:42:34;99317.34;;;11.10;100.00
30554;BME280;17335;50.720;7.452;2023-05-21T00:45:06;99309.13;;;11.11;100.00
30554;BME280;17335;50.720;7.452;2023-05-21T00:47:33;99309.13;;;11.11;100.00
30554;BME280;17335;50.720;7.452;2023-05-21T00:50:01;99310.25;;;11.08;100.00
30554;BME280;17335;50.720;7.452;2023-05-21T00:52:29;99309.41;;;11.08;100.00
30554;BME280;17335;50.720;7.452;2023-05-21T00:54:56;99313.09;;;11.07;100.00
30554;BME280;17335;50.720;7.452;2023-05-21T00:57:24;99302.97;;;11.01;100.00
30554;BME280;17335;50.720;7.452;2023-05-21T00:59:52;99307.94;;;10.96;100.00
30554;BME280;17335;50.720;7.452;2023-05-21T01:02:19;99308.50;;;10.89;100.00
30554;BME280;17335;50.720;7.452;2023-05-21T01:04:46;99294.50;;;10.96;100.00
30554;BME280;17335;50.720;7.452;2023-05-21T01:07:12;99297.47;;;10.93;100.00
30554;BME280;17335;50.720;7.452;2023-05-21T01:09:40;99300.59;;;10.88;100.00
30554;BME280;17335;50.720;7.452;2023-05-21T01:12:08;99294.53;;;10.86;100.00
30554;BME280;17335;50.720;7.452;2023-05-21T01:14:36;99299.66;;;10.79;100.00
30554;BME280;17335;50.720;7.452;2023-05-21T01:17:04;99302.78;;;10.75;100.00
30554;BME280;17335;50.720;7.452;2023-05-21T01:19:32;99299.09;;;10.76;100.00
30554;BME280;17335;50.720;7.452;2023-05-21T01:22:05;99298.25;;;10.75;100.00
30554;BME280;17335;50.720;7.452;2023-05-21T01:24:33;99298.94;;;10.77;100.00
30554;BME280;17335;50.720;7.452;2023-05-21T01:27:03;99295.28;;;10.78;100.00
30554;BME280;17335;50.720;7.452;2023-05-21T01:29:32;99303.34;;;10.78;100.00
30554;BME280;17335;50.720;7.452;2023-05-21T01:35:04;99295.84;;;10.82;100.00
30554;BME280;17335;50.720;7.452;2023-05-21T01:37:34;99298.38;;;10.83;100.00
30554;BME280;17335;50.720;7.452;2023-05-21T01:40:28;99296.88;;;10.71;100.00
30554;BME280;17335;50.720;7.452;2023-05-21T01:42:57;99298.13;;;10.67;100.00
30554;BME280;17335;50.720;7.452;2023-05-21T01:45:24;99297.72;;;10.62;100.00
30554;BME280;17335;50.720;7.452;2023-05-21T01:47:54;99304.00;;;10.53;100.00
30554;BME280;17335;50.720;7.452;2023-05-21T01:50:23;99305.66;;;10.54;100.00
30554;BME280;17335;50.720;7.452;2023-05-21T01:52:55;99306.66;;;10.53;100.00
30554;BME280;17335;50.720;7.452;2023-05-21T01:55:26;99308.81;;;10.49;100.00
30554;BME280;17335;50.720;7.452;2023-05-21T01:57:57;99302.56;;;10.48;100.00
30554;BME280;17335;50.720;7.452;2023-05-21T02:00:28;99296.06;;;10.51;100.00
30554;BME280;17335;50.720;7.452;2023-05-21T02:02:55;99305.97;;;10.50;100.00
30554;BME280;17335;50.720;7.452;2023-05-21T02:05:22;99302.00;;;10.55;100.00
30554;BME280;17335;50.720;7.452;2023-05-21T02:07:49;99298.03;;;10.59;100.00
30554;BME280;17335;50.720;7.452;2023-05-21T02:10:17;99290.38;;;10.64;100.00
30554;BME280;17335;50.720;7.452;2023-05-21T02:12:44;99295.75;;;10.64;100.00
30554;BME280;17335;50.720;7.452;2023-05-21T02:15:11;99294.63;;;10.66;100.00
30554;BME280;17335;50.720;7.452;2023-05-21T02:17:39;99295.03;;;10.72;100.00
30554;BME280;17335;50.720;7.452;2023-05-21T02:20:07;99294.00;;;10.73;100.00
30554;BME280;17335;50.720;7.452;2023-05-21T02:22:42;99294.00;;;10.73;100.00
30554;BME280;17335;50.720;7.452;2023-05-21T02:25:09;99289.50;;;10.73;100.00
30554;BME280;17335;50.720;7.452;2023-05-21T02:27:37;99289.66;;;10.72;100.00
30554;BME280;17335;50.720;7.452;2023-05-21T02:30:06;99291.19;;;10.74;100.00
30554;BME280;17335;50.720;7.452;2023-05-21T02:32:34;99293.59;;;10.77;100.00
30554;BME280;17335;50.720;7.452;2023-05-21T02:35:02;99291.19;;;10.74;100.00
30554;BME280;17335;50.720;7.452;2023-05-21T02:37:30;99284.97;;;10.74;100.00
30554;BME280;17335;50.720;7.452;2023-05-21T02:40:01;99289.50;;;10.73;100.00
30554;BME280;17335;50.720;7.452;2023-05-21T02:42:29;99288.09;;;10.69;100.00
30554;BME280;17335;50.720;7.452;2023-05-21T02:44:56;99288.09;;;10.69;100.00
30554;BME280;17335;50.720;7.452;2023-05-21T02:47:22;99285.41;;;10.69;100.00
30554;BME280;17335;50.720;7.452;2023-05-21T02:49:52;99290.19;;;10.75;100.00
30554;BME280;17335;50.720;7.452;2023-05-21T02:52:19;99289.38;;;10.75;100.00
30554;BME280;17335;50.720;7.452;2023-05-21T02:54:49;99280.44;;;10.74;100.00
30554;BME280;17335;50.720;7.452;2023-05-21T02:57:15;99282.97;;;10.76;100.00
30554;BME280;17335;50.720;7.452;2023-05-21T02:59:44;99282.00;;;10.77;100.00
30554;BME280;17335;50.720;7.452;2023-05-21T03:02:11;99273.81;;;10.78;100.00
30554;BME280;17335;50.720;7.452;2023-05-21T03:04:37;99284.53;;;10.78;100.00
30554;BME280;17335;50.720;7.452;2023-05-21T03:07:05;99282.16;;;10.75;100.00
30554;BME280;17335;50.720;7.452;2023-05-21T03:09:31;99278.22;;;10.69;100.00
30554;BME280;17335;50.720;7.452;2023-05-21T03:11:57;99271.59;;;10.64;100.00
30554;BME280;17335;50.720;7.452;2023-05-21T03:14:24;99277.97;;;10.63;100.00
30554;BME280;17335;50.720;7.452;2023-05-21T03:16:51;99279.63;;;10.64;100.00
30554;BME280;17335;50.720;7.452;2023-05-21T03:19:18;99269.03;;;10.62;100.00
30554;BME280;17335;50.720;7.452;2023-05-21T03:21:46;99268.91;;;10.64;100.00
30554;BME280;17335;50.720;7.452;2023-05-21T03:24:15;99271.50;;;10.56;100.00
30554;BME280;17335;50.720;7.452;2023-05-21T03:26:41;99268.50;;;10.59;100.00
30554;BME280;17335;50.720;7.452;2023-05-21T03:29:09;99274.88;;;10.58;100.00
30554;BME280;17335;50.720;7.452;2023-05-21T03:31:35;99275.84;;;10.57;100.00
30554;BME280;17335;50.720;7.452;2023-05-21T03:34:02;99265.50;;;10.62;100.00
30554;BME280;17335;50.720;7.452;2023-05-21T03:36:28;99266.69;;;10.59;100.00
30554;BME280;17335;50.720;7.452;2023-05-21T03:38:55;99265.25;;;10.55;100.00
30554;BME280;17335;50.720;7.452;2023-05-21T03:41:21;99269.94;;;10.53;100.00
30554;BME280;17335;50.720;7.452;2023-05-21T03:43:48;99266.13;;;10.56;100.00
30554;BME280;17335;50.720;7.452;2023-05-21T03:46:15;99271.63;;;10.54;100.00
30554;BME280;17335;50.720;7.452;2023-05-21T03:48:41;99268.81;;;10.56;100.00
30554;BME280;17335;50.720;7.452;2023-05-21T03:51:08;99268.34;;;10.60;100.00
30554;BME280;17335;50.720;7.452;2023-05-21T03:53:35;99267.38;;;10.61;100.00
30554;BME280;17335;50.720;7.452;2023-05-21T03:56:02;99265.22;;;10.65;100.00
30554;BME280;17335;50.720;7.452;2023-05-21T03:58:29;99268.59;;;10.67;100.00
30554;BME280;17335;50.720;7.452;2023-05-21T04:00:56;99266.63;;;10.69;100.00
30554;BME280;17335;50.720;7.452;2023-05-21T04:03:22;99275.41;;;10.71;100.00
30554;BME280;17335;50.720;7.452;2023-05-21T04:05:50;99270.31;;;10.68;100.00
30554;BME280;17335;50.720;7.452;2023-05-21T04:08:17;99264.66;;;10.71;100.00
30554;BME280;17335;50.720;7.452;2023-05-21T04:10:44;99266.63;;;10.69;100.00
30554;BME280;17335;50.720;7.452;2023-05-21T04:13:11;99266.63;;;10.69;100.00
30554;BME280;17335;50.720;7.452;2023-05-21T04:15:38;99263.53;;;10.64;100.00
30554;BME280;17335;50.720;7.452;2023-05-21T04:18:05;99262.69;;;10.63;100.00
30554;BME280;17335;50.720;7.452;2023-05-21T04:20:33;99266.75;;;10.67;100.00
30554;BME280;17335;50.720;7.452;2023-05-21T04:23:00;99267.34;;;10.71;100.00
30554;BME280;17335;50.720;7.452;2023-05-21T04:25:28;99268.72;;;10.75;100.00
30554;BME280;17335;50.720;7.452;2023-05-21T04:27:54;99267.13;;;10.82;100.00
30554;BME280;17335;50.720;7.452;2023-05-21T04:30:21;99264.84;;;10.87;100.00
30554;BME280;17335;50.720;7.452;2023-05-21T04:32:50;99268.06;;;10.91;100.00
30554;BME280;17335;50.720;7.452;2023-05-21T04:35:20;99272.31;;;10.94;100.00
30554;BME280;17335;50.720;7.452;2023-05-21T04:37:47;99277.69;;;10.94;100.00
30554;BME280;17335;50.720;7.452;2023-05-21T04:40:14;99273.31;;;10.93;100.00
30554;BME280;17335;50.720;7.452;2023-05-21T04:42:50;99273.84;;;10.96;100.00
30554;BME280;17335;50.720;7.452;2023-05-21T04:45:17;99275.09;;;11.02;100.00
30554;BME280;17335;50.720;7.452;2023-05-21T04:47:44;99284.69;;;11.04;100.00
30554;BME280;17335;50.720;7.452;2023-05-21T04:50:11;99280.31;;;11.03;100.00
30554;BME280;17335;50.720;7.452;2023-05-21T04:52:38;99278.34;;;11.05;100.00
30554;BME280;17335;50.720;7.452;2023-05-21T04:55:08;99283.25;;;11.10;100.00
30554;BME280;17335;50.720;7.452;2023-05-21T04:57:35;99282.66;;;11.16;100.00
30554;BME280;17335;50.720;7.452;2023-05-21T05:00:02;99286.13;;;11.26;100.00
30554;BME280;17335;50.720;7.452;2023-05-21T05:02:32;99286.53;;;11.32;100.00
30554;BME280;17335;50.720;7.452;2023-05-21T05:04:58;99291.13;;;11.39;100.00
30554;BME280;17335;50.720;7.452;2023-05-21T05:07:25;99298.75;;;11.44;100.00
30554;BME280;17335;50.720;7.452;2023-05-21T05:09:51;99291.91;;;11.50;100.00
30554;BME280;17335;50.720;7.452;2023-05-21T05:12:18;99287.81;;;11.55;100.00
30554;BME280;17335;50.720;7.452;2023-05-21T05:14:44;99293.22;;;11.63;100.00
30554;BME280;17335;50.720;7.452;2023-05-21T05:17:11;99279.88;;;11.72;100.00
30554;BME280;17335;50.720;7.452;2023-05-21T05:19:41;99272.72;;;11.80;100.00
30554;BME280;17335;50.720;7.452;2023-05-21T05:22:08;99262.50;;;11.84;100.00
30554;BME280;17335;50.720;7.452;2023-05-21T05:24:36;99267.56;;;11.87;100.00
30554;BME280;17335;50.720;7.452;2023-05-21T05:27:03;99276.28;;;11.99;100.00
30554;BME280;17335;50.720;7.452;2023-05-21T05:29:29;99267.97;;;12.10;100.00
30554;BME280;17335;50.720;7.452;2023-05-21T05:31:56;99273.56;;;12.17;100.00
30554;BME280;17335;50.720;7.452;2023-05-21T05:34:22;99281.69;;;12.25;100.00
30554;BME280;17335;50.720;7.452;2023-05-21T05:36:49;99280.53;;;12.28;100.00
30554;BME280;17335;50.720;7.452;2023-05-21T05:39:16;99274.50;;;12.34;100.00
30554;BME280;17335;50.720;7.452;2023-05-21T05:41:43;99266.13;;;12.37;100.00
30554;BME280;17335;50.720;7.452;2023-05-21T05:44:09;99262.47;;;12.46;100.00
30554;BME280;17335;50.720;7.452;2023-05-21T05:46:36;99257.16;;;12.54;100.00
30554;BME280;17335;50.720;7.452;2023-05-21T05:49:03;99259.00;;;12.54;100.00
30554;BME280;17335;50.720;7.452;2023-05-21T05:51:30;99259.53;;;12.57;100.00
30554;BME280;17335;50.720;7.452;2023-05-21T05:53:56;99264.59;;;12.61;100.00
30554;BME280;17335;50.720;7.452;2023-05-21T05:56:23;99262.78;;;12.69;100.00
30554;BME280;17335;50.720;7.452;2023-05-21T05:58:50;99264.50;;;12.70;100.00
30554;BME280;17335;50.720;7.452;2023-05-21T06:01:17;99267.56;;;12.84;100.00
30554;BME280;17335;50.720;7.452;2023-05-21T06:03:44;99254.88;;;13.10;100.00
30554;BME280;17335;50.720;7.452;2023-05-21T06:06:11;99255.06;;;13.17;100.00
30554;BME280;17335;50.720;7.452;2023-05-21T06:08:38;99257.34;;;13.38;100.00
30554;BME280;17335;50.720;7.452;2023-05-21T06:11:05;99247.53;;;13.29;100.00
30554;BME280;17335;50.720;7.452;2023-05-21T06:13:32;99241.84;;;13.40;100.00
30554;BME280;17335;50.720;7.452;2023-05-21T06:15:59;99245.91;;;13.53;100.00
30554;BME280;17335;50.720;7.452;2023-05-21T06:18:25;99248.78;;;13.59;100.00
30554;BME280;17335;50.720;7.452;2023-05-21T06:20:52;99241.72;;;13.75;100.00
30554;BME280;17335;50.720;7.452;2023-05-21T06:23:19;99245.59;;;13.88;100.00
30554;BME280;17335;50.720;7.452;2023-05-21T06:25:45;99238.38;;;13.89;100.00
30554;BME280;17335;50.720;7.452;2023-05-21T06:28:12;99247.97;;;13.92;100.00
30554;BME280;17335;50.720;7.452;2023-05-21T06:30:39;99249.63;;;13.60;100.00
30554;BME280;17335;50.720;7.452;2023-05-21T06:33:05;99254.38;;;13.66;100.00
30554;BME280;17335;50.720;7.452;2023-05-21T06:35:32;99252.66;;;13.57;100.00
30554;BME280;17335;50.720;7.452;2023-05-21T06:38:02;99248.94;;;13.58;100.00
30554;BME280;17335;50.720;7.452;2023-05-21T06:40:28;99246.78;;;13.69;100.00
30554;BME280;17335;50.720;7.452;2023-05-21T06:42:55;99244.44;;;13.99;100.00
30554;BME280;17335;50.720;7.452;2023-05-21T06:45:22;99234.81;;;14.13;100.00
30554;BME280;17335;50.720;7.452;2023-05-21T06:47:48;99234.09;;;14.28;100.00
30554;BME280;17335;50.720;7.452;2023-05-21T06:50:16;99231.91;;;14.23;100.00
30554;BME280;17335;50.720;7.452;2023-05-21T06:52:42;99229.72;;;14.26;100.00
30554;BME280;17335;50.720;7.452;2023-05-21T06:55:09;99225.81;;;14.37;100.00
30554;BME280;17335;50.720;7.452;2023-05-21T06:57:36;99230.84;;;14.49;100.00
30554;BME280;17335;50.720;7.452;2023-05-21T07:00:03;99243.47;;;14.73;100.00
30554;BME280;17335;50.720;7.452;2023-05-21T07:02:31;99237.06;;;14.74;100.00
30554;BME280;17335;50.720;7.452;2023-05-21T07:04:57;99236.88;;;14.84;100.00
30554;BME280;17335;50.720;7.452;2023-05-21T07:07:24;99222.31;;;14.85;100.00
30554;BME280;17335;50.720;7.452;2023-05-21T07:09:51;99226.13;;;14.98;100.00
30554;BME280;17335;50.720;7.452;2023-05-21T07:12:17;99231.50;;;15.07;100.00
30554;BME280;17335;50.720;7.452;2023-05-21T07:14:44;99223.16;;;14.85;100.00
30554;BME280;17335;50.720;7.452;2023-05-21T07:17:11;99227.22;;;14.89;100.00
30554;BME280;17335;50.720;7.452;2023-05-21T07:19:37;99228.53;;;14.93;100.00
30554;BME280;17335;50.720;7.452;2023-05-21T07:22:04;99228.13;;;15.13;100.00
30554;BME280;17335;50.720;7.452;2023-05-21T07:24:31;99231.06;;;15.26;100.00
30554;BME280;17335;50.720;7.452;2023-05-21T07:26:57;99227.97;;;15.37;100.00
30554;BME280;17335;50.720;7.452;2023-05-21T07:29:24;99228.56;;;15.48;100.00
30554;BME280;17335;50.720;7.452;2023-05-21T07:31:50;99233.25;;;15.54;100.00
30554;BME280;17335;50.720;7.452;2023-05-21T07:34:17;99228.94;;;15.45;100.00
30554;BME280;17335;50.720;7.452;2023-05-21T07:36:43;99230.63;;;15.46;100.00
30554;BME280;17335;50.720;7.452;2023-05-21T07:39:10;99240.00;;;15.58;100.00
30554;BME280;17335;50.720;7.452;2023-05-21T07:41:37;99235.59;;;15.57;100.00
30554;BME280;17335;50.720;7.452;2023-05-21T07:44:04;99228.25;;;15.66;100.00
30554;BME280;17335;50.720;7.452;2023-05-21T07:46:31;99232.03;;;15.88;100.00
30554;BME280;17335;50.720;7.452;2023-05-21T07:48:57;99220.94;;;15.98;100.00
30554;BME280;17335;50.720;7.452;2023-05-21T07:51:24;99214.13;;;16.02;100.00
30554;BME280;17335;50.720;7.452;2023-05-21T07:53:51;99212.06;;;15.89;100.00
30554;BME280;17335;50.720;7.452;2023-05-21T07:56:20;99220.84;;;15.91;100.00
30554;BME280;17335;50.720;7.452;2023-05-21T07:58:47;99225.31;;;15.99;100.00
30554;BME280;17335;50.720;7.452;2023-05-21T08:01:13;99217.59;;;16.10;100.00
30554;BME280;17335;50.720;7.452;2023-05-21T08:03:40;99211.72;;;16.07;100.00
30554;BME280;17335;50.720;7.452;2023-05-21T08:06:07;99218.53;;;16.03;100.00
30554;BME280;17335;50.720;7.452;2023-05-21T08:08:34;99212.94;;;16.04;100.00
30554;BME280;17335;50.720;7.452;2023-05-21T08:11:01;99207.75;;;16.18;100.00
30554;BME280;17335;50.720;7.452;2023-05-21T08:13:28;99208.69;;;16.25;100.00
30554;BME280;17335;50.720;7.452;2023-05-21T08:15:55;99197.94;;;16.31;100.00
30554;BME280;17335;50.720;7.452;2023-05-21T08:18:22;99203.16;;;16.33;100.00
30554;BME280;17335;50.720;7.452;2023-05-21T08:20:49;99199.72;;;16.39;100.00
30554;BME280;17335;50.720;7.452;2023-05-21T08:23:16;99207.28;;;16.44;100.00
30554;BME280;17335;50.720;7.452;2023-05-21T08:25:42;99200.84;;;16.60;100.00
30554;BME280;17335;50.720;7.452;2023-05-21T08:28:08;99206.13;;;16.83;100.00
30554;BME280;17335;50.720;7.452;2023-05-21T08:30:35;99199.72;;;16.99;100.00
30554;BME280;17335;50.720;7.452;2023-05-21T08:33:02;99190.69;;;17.13;100.00
30554;BME280;17335;50.720;7.452;2023-05-21T08:35:29;99199.34;;;17.38;100.00
30554;BME280;17335;50.720;7.452;2023-05-21T08:37:55;99194.91;;;17.16;100.00
30554;BME280;17335;50.720;7.452;2023-05-21T08:40:22;99199.78;;;17.42;100.00
30554;BME280;17335;50.720;7.452;2023-05-21T08:42:49;99195.59;;;17.61;100.00
30554;BME280;17335;50.720;7.452;2023-05-21T08:45:20;99196.28;;;17.48;100.00
30554;BME280;17335;50.720;7.452;2023-05-21T08:47:54;99178.50;;;17.67;100.00
30554;BME280;17335;50.720;7.452;2023-05-21T08:50:25;99184.19;;;17.72;100.00
30554;BME280;17335;50.720;7.452;2023-05-21T08:52:52;99183.22;;;17.58;100.00
30554;BME280;17335;50.720;7.452;2023-05-21T08:55:20;99188.22;;;17.98;100.00
30554;BME280;17335;50.720;7.452;2023-05-21T08:57:52;99184.13;;;18.09;100.00
30554;BME280;17335;50.720;7.452;2023-05-21T09:00:19;99176.44;;;18.12;100.00
30554;BME280;17335;50.720;7.452;2023-05-21T09:02:46;99185.75;;;18.31;100.00
30554;BME280;17335;50.720;7.452;2023-05-21T09:05:14;99186.31;;;18.55;100.00
30554;BME280;17335;50.720;7.452;2023-05-21T09:07:46;99183.97;;;18.87;100.00
30554;BME280;17335;50.720;7.452;2023-05-21T09:10:16;99190.75;;;18.63;100.00
30554;BME280;17335;50.720;7.452;2023-05-21T09:12:44;99186.13;;;18.63;100.00
30554;BME280;17335;50.720;7.452;2023-05-21T09:15:10;99185.59;;;18.81;100.00
30554;BME280;17335;50.720;7.452;2023-05-21T09:17:37;99174.81;;;19.01;100.00
30554;BME280;17335;50.720;7.452;2023-05-21T09:20:11;99172.19;;;19.21;100.00
30554;BME280;17335;50.720;7.452;2023-05-21T09:22:44;99172.44;;;19.40;100.00
30554;BME280;17335;50.720;7.452;2023-05-21T09:25:16;99169.28;;;19.36;100.00
30554;BME280;17335;50.720;7.452;2023-05-21T09:27:43;99173.88;;;19.29;100.00
30554;BME280;17335;50.720;7.452;2023-05-21T09:30:15;99167.16;;;19.25;100.00
30554;BME280;17335;50.720;7.452;2023-05-21T09:32:43;99168.47;;;19.49;100.00
30554;BME280;17335;50.720;7.452;2023-05-21T09:35:12;99164.09;;;19.55;100.00
30554;BME280;17335;50.720;7.452;2023-05-21T09:37:44;99165.53;;;19.57;100.00
30554;BME280;17335;50.720;7.452;2023-05-21T09:40:13;99161.34;;;19.61;100.00
30554;BME280;17335;50.720;7.452;2023-05-21T09:42:42;99160.56;;;19.88;100.00
30554;BME280;17335;50.720;7.452;2023-05-21T09:45:11;99161.00;;;19.98;100.00
30554;BME280;17335;50.720;7.452;2023-05-21T09:47:41;99163.28;;;20.14;100.00
30554;BME280;17335;50.720;7.452;2023-05-21T09:50:10;99157.81;;;20.14;100.00
30554;BME280;17335;50.720;7.452;2023-05-21T09:52:37;99152.16;;;20.16;100.00
30554;BME280;17335;50.720;7.452;2023-05-21T09:55:11;99150.47;;;20.21;100.00
30554;BME280;17335;50.720;7.452;2023-05-21T09:57:41;99151.66;;;20.46;100.00
30554;BME280;17335;50.720;7.452;2023-05-21T10:00:23;99149.13;;;20.57;100.00
30554;BME280;17335;50.720;7.452;2023-05-21T10:02:54;99150.63;;;20.47;100.00
30554;BME280;17335;50.720;7.452;2023-05-21T10:05:28;99144.75;;;20.56;100.00
30554;BME280;17335;50.720;7.452;2023-05-21T10:08:00;99143.72;;;20.44;100.00
30554;BME280;17335;50.720;7.452;2023-05-21T10:10:28;99139.41;;;20.82;100.00
30554;BME280;17335;50.720;7.452;2023-05-21T10:13:04;99126.41;;;20.84;100.00
30554;BME280;17335;50.720;7.452;2023-05-21T10:15:37;99112.88;;;21.02;100.00
30554;BME280;17335;50.720;7.452;2023-05-21T10:18:05;99113.00;;;21.14;100.00
30554;BME280;17335;50.720;7.452;2023-05-21T10:20:32;99114.88;;;21.52;100.00
30554;BME280;17335;50.720;7.452;2023-05-21T10:22:58;99118.00;;;21.24;100.00
30554;BME280;17335;50.720;7.452;2023-05-21T10:25:27;99122.56;;;21.30;100.00
30554;BME280;17335;50.720;7.452;2023-05-21T10:27:54;99110.97;;;21.34;100.00
30554;BME280;17335;50.720;7.452;2023-05-21T10:30:22;99095.31;;;21.55;100.00
30554;BME280;17335;50.720;7.452;2023-05-21T10:32:49;99105.94;;;21.70;100.00
30554;BME280;17335;50.720;7.452;2023-05-21T10:35:17;99095.81;;;21.70;100.00
30554;BME280;17335;50.720;7.452;2023-05-21T10:37:44;99094.56;;;21.73;100.00
30554;BME280;17335;50.720;7.452;2023-05-21T10:40:11;99090.84;;;21.86;100.00
30554;BME280;17335;50.720;7.452;2023-05-21T10:45:25;99086.13;;;22.18;100.00
30554;BME280;17335;50.720;7.452;2023-05-21T10:48:34;99085.25;;;21.99;100.00
30554;BME280;17335;50.720;7.452;2023-05-21T10:56:25;99076.78;;;22.63;100.00
30554;BME280;17335;50.720;7.452;2023-05-21T11:01:58;99078.13;;;22.72;100.00
30554;BME280;17335;50.720;7.452;2023-05-21T11:04:25;99067.75;;;22.93;100.00
30554;BME280;17335;50.720;7.452;2023-05-21T11:06:53;99069.56;;;22.99;100.00
30554;BME280;17335;50.720;7.452;2023-05-21T11:09:22;99056.09;;;23.16;100.00
30554;BME280;17335;50.720;7.452;2023-05-21T11:11:50;99043.63;;;23.32;100.00
30554;BME280;17335;50.720;7.452;2023-05-21T11:14:36;99048.84;;;23.21;100.00
30554;BME280;17335;50.720;7.452;2023-05-21T11:19:35;99042.06;;;23.36;100.00
30554;BME280;17335;50.720;7.452;2023-05-21T11:22:24;99037.53;;;23.53;100.00
30554;BME280;17335;50.720;7.452;2023-05-21T11:24:52;99035.66;;;23.54;100.00
30554;BME280;17335;50.720;7.452;2023-05-21T11:27:35;99033.19;;;23.88;100.00
30554;BME280;17335;50.720;7.452;2023-05-21T11:30:06;99033.56;;;23.91;100.00
30554;BME280;17335;50.720;7.452;2023-05-21T11:32:37;99017.19;;;24.08;100.00
30554;BME280;17335;50.720;7.452;2023-05-21T11:35:05;99018.75;;;23.92;100.00
30554;BME280;17335;50.720;7.452;2023-05-21T11:37:33;99018.63;;;24.11;100.00
30554;BME280;17335;50.720;7.452;2023-05-21T11:40:23;99021.72;;;24.03;100.00
30554;BME280;17335;50.720;7.452;2023-05-21T11:42:55;99022.22;;;23.76;100.00
30554;BME280;17335;50.720;7.452;2023-05-21T11:45:27;99018.16;;;23.78;100.00
30554;BME280;17335;50.720;7.452;2023-05-21T11:47:54;99021.47;;;24.16;100.00
30554;BME280;17335;50.720;7.452;2023-05-21T11:50:21;99012.16;;;24.17;100.00
30554;BME280;17335;50.720;7.452;2023-05-21T11:52:48;99015.94;;;24.40;100.00
30554;BME280;17335;50.720;7.452;2023-05-21T11:55:20;99011.19;;;24.23;100.00
30554;BME280;17335;50.720;7.452;2023-05-21T11:57:51;99000.63;;;24.44;100.00
30554;BME280;17335;50.720;7.452;2023-05-21T12:00:18;98998.75;;;24.73;100.00
30554;BME280;17335;50.720;7.452;2023-05-21T12:02:51;98993.69;;;24.53;100.00
30554;BME280;17335;50.720;7.452;2023-05-21T12:05:19;98998.50;;;24.75;100.00
30554;BME280;17335;50.720;7.452;2023-05-21T12:07:46;98995.59;;;24.64;100.00
30554;BME280;17335;50.720;7.452;2023-05-21T12:10:19;98993.91;;;24.63;100.00
30554;BME280;17335;50.720;7.452;2023-05-21T12:12:47;98983.41;;;24.20;100.00
30554;BME280;17335;50.720;7.452;2023-05-21T12:15:23;98984.63;;;24.52;100.00
30554;BME280;17335;50.720;7.452;2023-05-21T12:17:50;98987.84;;;24.61;100.00
30554;BME280;17335;50.720;7.452;2023-05-21T12:20:18;98993.47;;;24.83;100.00
30554;BME280;17335;50.720;7.452;2023-05-21T12:22:48;98982.19;;;25.14;100.00
30554;BME280;17335;50.720;7.452;2023-05-21T12:25:19;98990.00;;;25.05;100.00
30554;BME280;17335;50.720;7.452;2023-05-21T12:27:48;98990.81;;;24.88;100.00
30554;BME280;17335;50.720;7.452;2023-05-21T12:30:24;98984.34;;;25.29;100.00
30554;BME280;17335;50.720;7.452;2023-05-21T12:32:51;98987.44;;;24.69;100.00
30554;BME280;17335;50.720;7.452;2023-05-21T12:35:21;98987.50;;;25.03;100.00
30554;BME280;17335;50.720;7.452;2023-05-21T12:37:49;98979.28;;;25.20;100.00
30554;BME280;17335;50.720;7.452;2023-05-21T12:40:17;98981.41;;;25.01;100.00
30554;BME280;17335;50.720;7.452;2023-05-21T12:42:44;98985.00;;;25.02;100.00
30554;BME280;17335;50.720;7.452;2023-05-21T12:45:11;98977.13;;;24.77;100.00
30554;BME280;17335;50.720;7.452;2023-05-21T12:47:38;98986.56;;;24.81;100.00
30554;BME280;17335;50.720;7.452;2023-05-21T12:50:08;98987.22;;;24.88;100.00
30554;BME280;17335;50.720;7.452;2023-05-21T12:52:39;98978.41;;;25.03;100.00
30554;BME280;17335;50.720;7.452;2023-05-21T12:55:13;98978.94;;;25.00;100.00
30554;BME280;17335;50.720;7.452;2023-05-21T12:57:39;98979.91;;;24.94;100.00
30554;BME280;17335;50.720;7.452;2023-05-21T13:00:06;98988.94;;;24.60;100.00
30554;BME280;17335;50.720;7.452;2023-05-21T13:02:38;98982.63;;;24.77;100.00
30554;BME280;17335;50.720;7.452;2023-05-21T13:05:08;98981.34;;;24.96;100.00
30554;BME280;17335;50.720;7.452;2023-05-21T13:07:37;98978.63;;;24.67;100.00
30554;BME280;17335;50.720;7.452;2023-05-21T13:10:05;98977.06;;;24.88;100.00
30554;BME280;17335;50.720;7.452;2023-05-21T13:12:32;98980.06;;;24.87;100.00